createdAt,value
2019-03-20T00:00:58.264Z,0.14
2019-03-20T00:04:06.199Z,0.22
2019-03-20T00:07:13.720Z,0.18
2019-03-20T00:10:20.550Z,0.23
2019-03-20T00:13:28.212Z,0.15
2019-03-20T00:16:35.542Z,0.07
2019-03-20T00:19:42.242Z,0.25
2019-03-20T00:22:48.674Z,0.25
2019-03-20T00:25:55.108Z,0.22
2019-03-20T00:29:01.644Z,0.05
2019-03-20T00:32:09.844Z,0.09
2019-03-20T00:35:16.259Z,0.11
2019-03-20T00:38:23.053Z,0.20
2019-03-20T00:41:31.000Z,0.24
2019-03-20T00:44:37.556Z,0.18
2019-03-20T00:47:44.144Z,0.19
2019-03-20T00:50:50.833Z,0.13
2019-03-20T00:53:58.595Z,0.22
2019-03-20T00:57:05.022Z,0.28
2019-03-20T01:00:14.560Z,0.24
2019-03-20T01:03:21.031Z,0.14
2019-03-20T01:06:27.399Z,0.21
2019-03-20T01:09:34.227Z,0.10
2019-03-20T01:12:40.709Z,0.17
2019-03-20T01:15:52.422Z,0.13
2019-03-20T01:19:01.326Z,0.12
2019-03-20T01:22:08.307Z,0.12
2019-03-20T01:25:16.284Z,0.14
2019-03-20T01:28:23.680Z,0.11
2019-03-20T01:31:31.546Z,0.08
2019-03-20T01:34:38.943Z,0.17
2019-03-20T01:37:46.609Z,0.16
2019-03-20T01:40:55.347Z,0.08
2019-03-20T01:44:04.907Z,-0.08
2019-03-20T01:47:12.928Z,-0.02
2019-03-20T01:50:21.022Z,-0.08
2019-03-20T01:53:29.071Z,-0.04
2019-03-20T01:56:35.518Z,-0.18
2019-03-20T01:59:44.408Z,0.00
2019-03-20T02:02:50.870Z,-0.16
2019-03-20T02:05:58.692Z,-0.33
2019-03-20T02:09:07.352Z,-0.18
2019-03-20T02:12:13.851Z,-0.25
2019-03-20T02:15:21.727Z,-0.09
2019-03-20T02:18:28.095Z,-0.12
2019-03-20T02:21:34.998Z,-0.13
2019-03-20T02:24:42.278Z,-0.09
2019-03-20T02:27:49.774Z,0.00
2019-03-20T02:30:56.808Z,0.12
2019-03-20T02:34:03.135Z,0.17
2019-03-20T02:37:09.652Z,0.20
2019-03-20T02:40:16.456Z,0.30
2019-03-20T02:43:23.587Z,0.18
2019-03-20T02:46:30.013Z,0.32
2019-03-20T02:49:36.723Z,0.30
2019-03-20T02:52:45.046Z,0.33
2019-03-20T02:55:53.004Z,0.35
2019-03-20T02:58:59.369Z,0.42
2019-03-20T03:02:06.459Z,0.45
2019-03-20T03:05:13.643Z,0.47
2019-03-20T03:08:20.025Z,0.48
2019-03-20T03:11:26.504Z,0.53
2019-03-20T03:14:33.089Z,0.57
2019-03-20T03:17:41.003Z,0.55
2019-03-20T03:20:47.902Z,0.60
2019-03-20T03:23:55.875Z,0.51
2019-03-20T03:27:02.789Z,0.54
2019-03-20T03:30:09.540Z,0.56
2019-03-20T03:33:20.661Z,0.50
2019-03-20T03:36:30.558Z,0.52
2019-03-20T03:39:38.527Z,0.57
2019-03-20T03:42:47.615Z,0.22
2019-03-20T03:45:54.063Z,0.59
2019-03-20T03:49:00.448Z,0.68
2019-03-20T03:52:08.394Z,0.60
2019-03-20T03:55:15.017Z,0.65
2019-03-20T03:58:21.688Z,0.72
2019-03-20T04:01:29.471Z,0.73
2019-03-20T04:04:36.203Z,0.81
2019-03-20T04:07:42.679Z,0.66
2019-03-20T04:10:49.176Z,0.61
2019-03-20T04:13:57.119Z,0.66
2019-03-20T04:17:23.297Z,0.65
2019-03-20T04:20:31.141Z,0.69
2019-03-20T04:23:37.577Z,0.77
2019-03-20T04:26:46.624Z,0.77
2019-03-20T04:29:53.421Z,0.81
2019-03-20T04:32:59.971Z,0.81
2019-03-20T04:36:07.443Z,0.83
2019-03-20T04:39:13.702Z,0.77
2019-03-20T04:42:20.133Z,0.78
2019-03-20T04:45:26.505Z,0.86
2019-03-20T04:48:33.001Z,0.84
2019-03-20T04:51:39.486Z,0.72
2019-03-20T04:54:46.000Z,0.78
2019-03-20T04:57:52.386Z,0.88
2019-03-20T05:00:58.854Z,0.88
2019-03-20T05:04:05.332Z,0.84
2019-03-20T05:07:13.642Z,0.88
2019-03-20T05:10:20.095Z,0.95
2019-03-20T05:13:26.531Z,0.98
2019-03-20T05:16:33.832Z,0.85
2019-03-20T05:19:40.443Z,0.93
2019-03-20T05:22:46.799Z,0.94
2019-03-20T05:25:53.548Z,1.01
2019-03-20T05:28:59.855Z,1.08
2019-03-20T05:32:06.631Z,0.98
2019-03-20T05:35:14.168Z,1.07
2019-03-20T05:38:20.819Z,1.17
2019-03-20T05:41:27.246Z,0.94
2019-03-20T05:44:34.800Z,1.25
2019-03-20T05:47:42.835Z,1.24
2019-03-20T05:50:49.755Z,1.17
2019-03-20T05:53:56.203Z,1.28
2019-03-20T05:57:02.917Z,1.35
2019-03-20T06:00:10.883Z,1.40
2019-03-20T06:03:24.573Z,1.45
2019-03-20T06:06:31.477Z,1.49
2019-03-20T06:09:39.933Z,1.52
2019-03-20T06:12:46.699Z,1.58
2019-03-20T06:15:53.112Z,1.56
2019-03-20T06:19:00.550Z,1.60
2019-03-20T06:22:07.030Z,1.66
2019-03-20T06:25:13.511Z,1.60
2019-03-20T06:28:19.940Z,1.67
2019-03-20T06:31:27.468Z,1.68
2019-03-20T06:34:34.141Z,1.69
2019-03-20T06:37:40.614Z,1.79
2019-03-20T06:40:48.095Z,1.79
2019-03-20T06:43:54.592Z,1.76
2019-03-20T06:47:01.194Z,1.78
2019-03-20T06:50:11.317Z,1.79
2019-03-20T06:53:17.664Z,1.83
2019-03-20T06:56:24.014Z,1.98
2019-03-20T07:00:10.238Z,1.94
2019-03-20T07:03:29.860Z,1.95
2019-03-20T07:06:59.025Z,1.98
2019-03-20T07:10:34.984Z,2.03
2019-03-20T07:13:41.517Z,2.03
2019-03-20T07:16:47.891Z,1.99
2019-03-20T07:19:55.678Z,2.12
2019-03-20T07:23:03.071Z,2.19
2019-03-20T07:26:09.851Z,2.14
2019-03-20T07:29:16.186Z,2.21
2019-03-20T07:32:22.887Z,2.23
2019-03-20T07:35:32.511Z,2.23
2019-03-20T07:38:39.368Z,2.22
2019-03-20T07:41:45.729Z,2.32
2019-03-20T07:44:52.485Z,2.41
2019-03-20T07:47:59.048Z,2.35
2019-03-20T07:51:05.850Z,2.49
2019-03-20T07:54:12.242Z,2.43
2019-03-20T07:57:19.042Z,2.51
2019-03-20T08:00:25.425Z,2.48
2019-03-20T08:03:31.913Z,2.60
2019-03-20T08:06:39.365Z,2.70
2019-03-20T08:09:45.830Z,2.65
2019-03-20T08:12:52.211Z,2.75
2019-03-20T08:15:58.650Z,1.85
2019-03-20T08:19:05.232Z,2.76
2019-03-20T08:22:11.729Z,2.82
2019-03-20T08:25:18.121Z,2.91
2019-03-20T08:28:24.636Z,2.89
2019-03-20T08:31:31.233Z,2.91
2019-03-20T08:34:38.422Z,2.94
2019-03-20T08:37:46.459Z,2.93
2019-03-20T08:40:53.959Z,2.94
2019-03-20T08:44:00.431Z,3.03
2019-03-20T08:47:06.800Z,3.07
2019-03-20T08:50:15.437Z,3.00
2019-03-20T08:53:22.233Z,3.04
2019-03-20T08:56:28.595Z,3.08
2019-03-20T08:59:35.002Z,3.15
2019-03-20T09:02:41.280Z,3.24
2019-03-20T09:05:49.191Z,3.22
2019-03-20T09:08:55.546Z,3.19
2019-03-20T09:12:03.176Z,3.21
2019-03-20T09:15:11.095Z,3.19
2019-03-20T09:18:17.567Z,3.22
2019-03-20T09:21:23.908Z,3.21
2019-03-20T09:24:30.306Z,3.17
2019-03-20T09:27:36.911Z,3.17
2019-03-20T09:30:43.567Z,3.27
2019-03-20T09:33:49.974Z,3.32
2019-03-20T09:36:56.790Z,3.31
2019-03-20T09:40:03.445Z,3.26
2019-03-20T09:43:09.924Z,3.43
2019-03-20T09:46:16.277Z,3.48
2019-03-20T09:49:22.862Z,3.42
2019-03-20T09:52:29.324Z,3.48
2019-03-20T09:55:35.855Z,3.38
2019-03-20T09:58:42.247Z,3.40
2019-03-20T10:01:48.624Z,3.50
2019-03-20T10:04:55.051Z,3.50
2019-03-20T10:08:01.746Z,3.50
2019-03-20T10:11:08.028Z,3.55
2019-03-20T10:14:14.345Z,3.61
2019-03-20T10:17:20.693Z,3.61
2019-03-20T10:20:27.132Z,3.72
2019-03-20T10:23:33.537Z,3.70
2019-03-20T10:26:40.145Z,3.76
2019-03-20T10:29:46.562Z,3.84
2019-03-20T10:32:53.003Z,3.85
2019-03-20T10:35:59.664Z,3.88
2019-03-20T10:39:09.800Z,3.95
2019-03-20T10:42:16.441Z,3.98
2019-03-20T10:45:23.439Z,4.11
2019-03-20T10:48:29.790Z,4.21
2019-03-20T10:51:36.517Z,4.31
2019-03-20T10:54:43.013Z,4.41
2019-03-20T10:57:49.421Z,4.47
2019-03-20T11:00:55.798Z,4.46
2019-03-20T11:04:02.240Z,4.53
2019-03-20T11:07:09.344Z,4.56
2019-03-20T11:10:17.757Z,4.61
2019-03-20T11:13:24.036Z,4.64
2019-03-20T11:16:30.539Z,4.76
2019-03-20T11:19:36.882Z,4.77
2019-03-20T11:22:43.649Z,4.85
2019-03-20T11:25:50.420Z,4.82
2019-03-20T11:28:56.792Z,4.86
2019-03-20T11:32:03.134Z,4.53
2019-03-20T11:35:09.576Z,5.01
2019-03-20T11:38:15.906Z,5.03
2019-03-20T11:41:22.630Z,5.05
2019-03-20T11:44:29.126Z,5.02
2019-03-20T11:47:35.734Z,5.05
2019-03-20T11:50:42.093Z,5.26
2019-03-20T11:53:48.766Z,5.32
2019-03-20T11:56:56.414Z,5.50
2019-03-20T12:00:02.847Z,5.58
2019-03-20T12:03:09.328Z,5.68
2019-03-20T12:06:16.262Z,5.66
2019-03-20T12:09:24.102Z,5.71
2019-03-20T12:12:32.273Z,5.90
2019-03-20T12:15:38.619Z,5.81
2019-03-20T12:18:45.049Z,5.93
2019-03-20T12:21:51.512Z,6.10
2019-03-20T12:24:57.993Z,5.95
2019-03-20T12:28:04.590Z,5.92
2019-03-20T12:31:11.210Z,6.08
2019-03-20T12:34:20.321Z,6.02
2019-03-20T12:37:28.310Z,6.13
2019-03-20T12:40:34.926Z,6.18
2019-03-20T12:43:41.720Z,6.30
2019-03-20T12:46:48.297Z,6.26
2019-03-20T12:49:55.043Z,6.33
2019-03-20T12:53:02.276Z,6.46
2019-03-20T12:56:08.813Z,6.48
2019-03-20T12:59:15.165Z,6.58
2019-03-20T13:02:21.738Z,6.76
2019-03-20T13:05:28.095Z,6.88
2019-03-20T13:08:34.478Z,6.99
2019-03-20T13:11:40.874Z,7.03
2019-03-20T13:14:48.441Z,6.94
2019-03-20T13:17:54.850Z,6.98
2019-03-20T13:21:02.310Z,7.06
2019-03-20T13:24:08.658Z,7.05
2019-03-20T13:27:15.312Z,7.01
2019-03-20T13:30:24.349Z,7.16
2019-03-20T13:33:30.930Z,7.15
2019-03-20T13:36:37.419Z,7.30
2019-03-20T13:39:43.912Z,7.33
2019-03-20T13:42:50.240Z,7.30
2019-03-20T13:45:57.247Z,7.50
2019-03-20T13:49:03.938Z,7.54
2019-03-20T13:52:10.481Z,7.68
2019-03-20T13:55:19.662Z,7.79
2019-03-20T13:58:27.098Z,7.87
2019-03-20T14:01:33.540Z,7.97
2019-03-20T14:04:40.143Z,8.03
2019-03-20T14:07:46.505Z,8.28
2019-03-20T14:10:53.092Z,8.50
2019-03-20T14:13:59.387Z,8.77
2019-03-20T14:17:05.874Z,8.89
2019-03-20T14:20:14.768Z,8.91
2019-03-20T14:23:21.744Z,8.99
2019-03-20T14:26:29.013Z,9.04
2019-03-20T14:29:35.577Z,9.19
2019-03-20T14:32:42.026Z,9.35
2019-03-20T14:35:48.430Z,9.60
2019-03-20T14:38:54.757Z,9.76
2019-03-20T14:42:01.992Z,9.87
2019-03-20T14:45:11.430Z,9.89
2019-03-20T14:48:20.758Z,10.04
2019-03-20T14:51:27.579Z,10.08
2019-03-20T14:54:34.888Z,9.89
2019-03-20T14:57:45.641Z,9.93
2019-03-20T15:00:52.166Z,9.96
2019-03-20T15:03:58.771Z,9.96
2019-03-20T15:07:05.226Z,9.58
2019-03-20T15:10:13.551Z,9.66
2019-03-20T15:13:22.312Z,9.69
2019-03-20T15:16:28.659Z,9.37
2019-03-20T15:19:35.238Z,9.37
2019-03-20T15:22:42.919Z,9.41
2019-03-20T15:25:49.764Z,9.35
2019-03-20T15:28:56.234Z,9.47
2019-03-20T15:32:02.747Z,9.28
2019-03-20T15:35:09.281Z,9.04
2019-03-20T15:38:16.096Z,9.07
2019-03-20T15:41:25.600Z,8.94
2019-03-20T15:44:34.129Z,9.02
2019-03-20T15:47:40.450Z,8.90
2019-03-20T15:50:47.211Z,8.76
2019-03-20T15:53:54.568Z,8.57
2019-03-20T15:57:01.434Z,8.48
2019-03-20T16:00:11.453Z,8.42
2019-03-20T16:03:18.390Z,8.42
2019-03-20T16:06:25.076Z,8.37
2019-03-20T16:09:31.769Z,8.25
2019-03-20T16:12:41.078Z,8.44
2019-03-20T16:15:47.654Z,8.31
2019-03-20T16:18:54.109Z,8.29
2019-03-20T16:22:01.206Z,8.22
2019-03-20T16:25:08.333Z,8.11
2019-03-20T16:28:17.918Z,8.13
2019-03-20T16:31:24.285Z,8.08
2019-03-20T16:34:32.734Z,8.05
2019-03-20T16:37:42.561Z,7.98
2019-03-20T16:40:51.832Z,8.03
2019-03-20T16:43:58.258Z,7.95
2019-03-20T16:47:04.767Z,7.87
2019-03-20T16:50:12.459Z,7.88
2019-03-20T16:53:19.440Z,7.96
2019-03-20T16:56:25.974Z,8.04
2019-03-20T16:59:35.326Z,8.09
2019-03-20T17:02:41.827Z,7.86
2019-03-20T17:05:48.400Z,7.94
2019-03-20T17:08:54.785Z,7.94
2019-03-20T17:12:01.580Z,7.79
2019-03-20T17:15:19.402Z,7.88
2019-03-20T17:18:26.053Z,7.65
2019-03-20T17:21:33.497Z,7.68
2019-03-20T17:24:40.473Z,7.65
2019-03-20T17:27:46.906Z,7.55
2019-03-20T17:30:53.522Z,7.57
2019-03-20T17:34:16.310Z,7.44
2019-03-20T17:37:22.302Z,7.33
2019-03-20T17:40:28.727Z,7.24
2019-03-20T17:43:35.157Z,7.34
2019-03-20T17:46:42.757Z,7.25
2019-03-20T17:49:49.518Z,7.32
2019-03-20T17:52:55.989Z,7.32
2019-03-20T17:56:04.100Z,7.42
2019-03-20T17:59:13.199Z,7.34
2019-03-20T18:02:24.242Z,7.26
2019-03-20T18:05:43.560Z,7.29
2019-03-20T18:08:51.812Z,7.26
2019-03-20T18:11:58.105Z,7.21
2019-03-20T18:15:05.900Z,7.19
2019-03-20T18:18:12.292Z,7.16
2019-03-20T18:21:18.628Z,7.12
2019-03-20T18:24:27.716Z,7.19
2019-03-20T18:27:36.493Z,7.04
2019-03-20T18:30:42.907Z,7.07
2019-03-20T18:33:50.548Z,7.05
2019-03-20T18:36:59.259Z,7.10
2019-03-20T18:40:09.407Z,6.99
2019-03-20T18:43:16.598Z,6.83
2019-03-20T18:46:23.328Z,6.88
2019-03-20T18:49:30.970Z,6.72
2019-03-20T18:52:37.587Z,6.74
2019-03-20T18:55:44.581Z,6.58
2019-03-20T18:58:51.629Z,6.41
2019-03-20T19:01:58.321Z,6.29
2019-03-20T19:05:06.331Z,6.33
2019-03-20T19:08:12.736Z,6.16
2019-03-20T19:11:19.334Z,6.24
2019-03-20T19:14:27.484Z,6.27
2019-03-20T19:17:34.195Z,6.35
2019-03-20T19:20:43.488Z,6.37
2019-03-20T19:23:50.482Z,6.37
2019-03-20T19:26:56.836Z,6.37
2019-03-20T19:30:03.292Z,6.43
2019-03-20T19:33:09.835Z,6.42
2019-03-20T19:36:16.243Z,6.45
2019-03-20T19:39:22.636Z,6.53
2019-03-20T19:42:29.221Z,6.40
2019-03-20T19:45:35.553Z,6.38
2019-03-20T19:48:41.895Z,6.34
2019-03-20T19:51:48.216Z,6.35
2019-03-20T19:54:55.611Z,6.30
2019-03-20T19:58:01.892Z,6.34
2019-03-20T20:01:08.567Z,6.33
2019-03-20T20:04:16.120Z,6.32
2019-03-20T20:07:22.765Z,6.32
2019-03-20T20:10:29.261Z,6.32
2019-03-20T20:13:35.680Z,6.30
2019-03-20T20:16:46.052Z,6.28
2019-03-20T20:19:52.710Z,6.29
2019-03-20T20:23:00.613Z,6.24
2019-03-20T20:26:07.063Z,6.22
2019-03-20T20:29:13.815Z,6.32
2019-03-20T20:32:20.525Z,6.20
2019-03-20T20:35:26.952Z,6.20
2019-03-20T20:38:34.758Z,6.23
2019-03-20T20:41:41.138Z,6.14
2019-03-20T20:44:47.592Z,6.14
2019-03-20T20:47:53.935Z,5.94
2019-03-20T20:51:00.381Z,6.08
2019-03-20T20:54:11.707Z,6.00
2019-03-20T20:57:18.632Z,5.91
2019-03-20T21:00:24.980Z,5.92
2019-03-20T21:03:34.270Z,5.94
2019-03-20T21:06:40.718Z,5.90
2019-03-20T21:09:48.242Z,5.93
2019-03-20T21:12:57.362Z,5.95
2019-03-20T21:16:04.121Z,5.99
2019-03-20T21:19:33.401Z,6.02
2019-03-20T21:23:22.049Z,6.06
2019-03-20T21:26:28.931Z,6.10
2019-03-20T21:30:09.152Z,6.09
2019-03-20T21:33:59.803Z,6.03
2019-03-20T21:37:59.439Z,6.10
2019-03-20T21:41:50.365Z,6.11
2019-03-20T21:45:14.751Z,5.98
2019-03-20T21:48:21.542Z,6.01
2019-03-20T21:51:28.362Z,5.87
2019-03-20T21:55:29.851Z,5.85
2019-03-20T21:59:02.259Z,5.84
2019-03-20T22:02:47.235Z,5.84
2019-03-20T22:06:44.163Z,5.87
2019-03-20T22:10:33.621Z,5.86
2019-03-20T22:13:44.484Z,5.85
2019-03-20T22:17:50.620Z,5.76
2019-03-20T22:21:35.797Z,5.76
2019-03-20T22:25:11.397Z,5.69
2019-03-20T22:29:10.963Z,5.76
2019-03-20T22:32:58.368Z,5.74
2019-03-20T22:36:32.685Z,5.62
2019-03-20T22:40:36.367Z,5.61
2019-03-20T22:43:50.791Z,5.51
2019-03-20T22:47:37.963Z,5.31
2019-03-20T22:51:00.366Z,5.31
2019-03-20T22:54:31.145Z,5.21
2019-03-20T22:58:17.409Z,5.27
2019-03-20T23:01:48.941Z,5.21
2019-03-20T23:04:58.662Z,5.28
2019-03-20T23:08:12.596Z,5.17
2019-03-20T23:11:19.528Z,5.16
2019-03-20T23:14:26.597Z,5.25
2019-03-20T23:17:33.451Z,5.20
2019-03-20T23:20:40.346Z,5.12
2019-03-20T23:23:48.287Z,5.18
2019-03-20T23:26:56.035Z,5.08
2019-03-20T23:30:04.032Z,5.12
2019-03-20T23:33:11.070Z,5.19
2019-03-20T23:36:18.568Z,5.10
2019-03-20T23:39:26.721Z,5.03
2019-03-20T23:42:33.761Z,5.21
2019-03-20T23:45:40.627Z,5.18
2019-03-20T23:48:57.031Z,5.02
2019-03-20T23:52:04.059Z,5.02
2019-03-20T23:55:12.038Z,5.01
2019-03-20T23:58:21.385Z,5.09
